sensor_id;sensor_type;location;lat;lon;timestamp;temperature;humidity
16955;DHT22;8594;52.052;8.354;2023-08-07T00:01:25;16.50;99.90
16955;DHT22;8594;52.052;8.354;2023-08-07T00:03:51;16.40;99.90
16955;DHT22;8594;52.052;8.354;2023-08-07T00:06:18;16.30;99.90
16955;DHT22;8594;52.052;8.354;2023-08-07T00:08:45;16.50;99.90
16955;DHT22;8594;52.052;8.354;2023-08-07T00:11:12;16.50;99.90
16955;DHT22;8594;52.052;8.354;2023-08-07T00:13:40;16.30;99.90
16955;DHT22;8594;52.052;8.354;2023-08-07T00:16:07;16.50;99.90
16955;DHT22;8594;52.052;8.354;2023-08-07T00:18:35;16.50;99.90
16955;DHT22;8594;52.052;8.354;2023-08-07T00:21:02;16.40;99.90
16955;DHT22;8594;52.052;8.354;2023-08-07T00:23:29;16.50;99.90
16955;DHT22;8594;52.052;8.354;2023-08-07T00:25:56;16.40;99.90
16955;DHT22;8594;52.052;8.354;2023-08-07T00:28:23;16.20;99.90
16955;DHT22;8594;52.052;8.354;2023-08-07T00:30:51;16.30;99.90
16955;DHT22;8594;52.052;8.354;2023-08-07T00:33:18;16.30;99.90
16955;DHT22;8594;52.052;8.354;2023-08-07T00:35:44;16.30;99.90
16955;DHT22;8594;52.052;8.354;2023-08-07T00:38:11;16.40;99.90
16955;DHT22;8594;52.052;8.354;2023-08-07T00:40:39;16.30;99.90
16955;DHT22;8594;52.052;8.354;2023-08-07T00:43:07;16.30;99.90
16955;DHT22;8594;52.052;8.354;2023-08-07T00:45:36;16.20;99.90
16955;DHT22;8594;52.052;8.354;2023-08-07T00:48:09;16.30;99.90
16955;DHT22;8594;52.052;8.354;2023-08-07T00:50:38;16.40;99.90
16955;DHT22;8594;52.052;8.354;2023-08-07T00:53:06;16.20;99.90
16955;DHT22;8594;52.052;8.354;2023-08-07T00:55:33;16.30;99.90
16955;DHT22;8594;52.052;8.354;2023-08-07T00:58:01;16.40;99.90
16955;DHT22;8594;52.052;8.354;2023-08-07T01:00:29;16.50;99.90
16955;DHT22;8594;52.052;8.354;2023-08-07T01:02:56;16.50;99.90
16955;DHT22;8594;52.052;8.354;2023-08-07T01:05:25;16.50;99.90
16955;DHT22;8594;52.052;8.354;2023-08-07T01:07:53;16.30;99.90
16955;DHT22;8594;52.052;8.354;2023-08-07T01:10:35;16.40;99.90
16955;DHT22;8594;52.052;8.354;2023-08-07T01:13:14;16.40;99.90
16955;DHT22;8594;52.052;8.354;2023-08-07T01:15:48;16.40;99.90
16955;DHT22;8594;52.052;8.354;2023-08-07T01:18:19;16.30;99.90
16955;DHT22;8594;52.052;8.354;2023-08-07T01:20:49;16.30;99.90
16955;DHT22;8594;52.052;8.354;2023-08-07T01:23:17;16.30;99.90
16955;DHT22;8594;52.052;8.354;2023-08-07T01:25:44;16.30;99.90
16955;DHT22;8594;52.052;8.354;2023-08-07T01:28:16;16.40;99.90
16955;DHT22;8594;52.052;8.354;2023-08-07T01:30:50;16.40;99.90
16955;DHT22;8594;52.052;8.354;2023-08-07T01:33:29;16.40;99.90
16955;DHT22;8594;52.052;8.354;2023-08-07T01:36:02;16.40;99.90
16955;DHT22;8594;52.052;8.354;2023-08-07T01:38:34;16.50;99.90
16955;DHT22;8594;52.052;8.354;2023-08-07T01:41:04;16.30;99.90
16955;DHT22;8594;52.052;8.354;2023-08-07T01:43:31;16.30;99.90
16955;DHT22;8594;52.052;8.354;2023-08-07T01:45:58;16.30;99.90
16955;DHT22;8594;52.052;8.354;2023-08-07T01:48:26;16.40;99.90
16955;DHT22;8594;52.052;8.354;2023-08-07T01:50:53;16.40;99.90
16955;DHT22;8594;52.052;8.354;2023-08-07T01:53:20;16.40;99.90
16955;DHT22;8594;52.052;8.354;2023-08-07T01:55:49;16.40;99.90
16955;DHT22;8594;52.052;8.354;2023-08-07T01:58:15;16.40;99.90
16955;DHT22;8594;52.052;8.354;2023-08-07T02:00:42;16.30;99.90
16955;DHT22;8594;52.052;8.354;2023-08-07T02:03:09;16.50;99.90
16955;DHT22;8594;52.052;8.354;2023-08-07T02:05:36;16.40;99.90
16955;DHT22;8594;52.052;8.354;2023-08-07T02:08:03;16.40;99.90
16955;DHT22;8594;52.052;8.354;2023-08-07T02:10:30;16.30;99.90
16955;DHT22;8594;52.052;8.354;2023-08-07T02:12:58;16.20;99.90
16955;DHT22;8594;52.052;8.354;2023-08-07T02:15:25;16.10;99.90
16955;DHT22;8594;52.052;8.354;2023-08-07T02:17:52;16.00;99.90
16955;DHT22;8594;52.052;8.354;2023-08-07T02:20:19;16.00;99.90
16955;DHT22;8594;52.052;8.354;2023-08-07T02:22:46;16.10;99.90
16955;DHT22;8594;52.052;8.354;2023-08-07T02:25:13;16.10;99.90
16955;DHT22;8594;52.052;8.354;2023-08-07T02:27:39;16.20;99.90
16955;DHT22;8594;52.052;8.354;2023-08-07T02:30:08;16.20;99.90
16955;DHT22;8594;52.052;8.354;2023-08-07T02:32:35;16.20;99.90
16955;DHT22;8594;52.052;8.354;2023-08-07T02:35:03;16.30;99.90
16955;DHT22;8594;52.052;8.354;2023-08-07T02:37:30;16.30;99.90
16955;DHT22;8594;52.052;8.354;2023-08-07T02:39:57;16.30;99.90
16955;DHT22;8594;52.052;8.354;2023-08-07T02:42:24;16.40;99.90
16955;DHT22;8594;52.052;8.354;2023-08-07T02:44:50;16.60;99.90
16955;DHT22;8594;52.052;8.354;2023-08-07T02:47:19;16.50;99.90
16955;DHT22;8594;52.052;8.354;2023-08-07T02:49:45;16.40;99.90
16955;DHT22;8594;52.052;8.354;2023-08-07T02:52:12;16.40;99.90
16955;DHT22;8594;52.052;8.354;2023-08-07T02:54:39;16.50;99.90
16955;DHT22;8594;52.052;8.354;2023-08-07T02:57:06;16.40;99.90
16955;DHT22;8594;52.052;8.354;2023-08-07T02:59:33;16.40;99.90
16955;DHT22;8594;52.052;8.354;2023-08-07T03:01:59;16.30;99.90
16955;DHT22;8594;52.052;8.354;2023-08-07T03:04:28;16.30;99.90
16955;DHT22;8594;52.052;8.354;2023-08-07T03:06:54;16.50;99.90
16955;DHT22;8594;52.052;8.354;2023-08-07T03:09:21;16.40;99.90
16955;DHT22;8594;52.052;8.354;2023-08-07T03:11:48;16.50;99.90
16955;DHT22;8594;52.052;8.354;2023-08-07T03:14:15;16.40;99.90
16955;DHT22;8594;52.052;8.354;2023-08-07T03:16:42;16.30;99.90
16955;DHT22;8594;52.052;8.354;2023-08-07T03:19:09;16.10;99.90
16955;DHT22;8594;52.052;8.354;2023-08-07T03:21:37;16.20;99.90
16955;DHT22;8594;52.052;8.354;2023-08-07T03:24:04;16.30;99.90
16955;DHT22;8594;52.052;8.354;2023-08-07T03:26:31;16.40;99.90
16955;DHT22;8594;52.052;8.354;2023-08-07T03:28:58;16.50;99.90
16955;DHT22;8594;52.052;8.354;2023-08-07T03:31:25;16.50;99.90
16955;DHT22;8594;52.052;8.354;2023-08-07T03:33:52;16.30;99.90
16955;DHT22;8594;52.052;8.354;2023-08-07T03:36:19;16.30;99.90
16955;DHT22;8594;52.052;8.354;2023-08-07T03:38:47;16.40;99.90
16955;DHT22;8594;52.052;8.354;2023-08-07T03:41:14;16.30;99.90
16955;DHT22;8594;52.052;8.354;2023-08-07T03:43:40;16.30;99.90
16955;DHT22;8594;52.052;8.354;2023-08-07T03:46:07;16.30;99.90
16955;DHT22;8594;52.052;8.354;2023-08-07T03:48:34;16.30;99.90
16955;DHT22;8594;52.052;8.354;2023-08-07T03:51:04;16.30;99.90
16955;DHT22;8594;52.052;8.354;2023-08-07T03:53:33;16.40;99.90
16955;DHT22;8594;52.052;8.354;2023-08-07T03:56:01;16.30;99.90
16955;DHT22;8594;52.052;8.354;2023-08-07T03:58:29;16.50;99.90
16955;DHT22;8594;52.052;8.354;2023-08-07T04:00:56;16.50;99.90
16955;DHT22;8594;52.052;8.354;2023-08-07T04:03:22;16.60;99.90
16955;DHT22;8594;52.052;8.354;2023-08-07T04:05:52;16.70;99.90
16955;DHT22;8594;52.052;8.354;2023-08-07T04:08:20;16.70;99.90
16955;DHT22;8594;52.052;8.354;2023-08-07T04:10:57;16.50;99.90
16955;DHT22;8594;52.052;8.354;2023-08-07T04:13:27;16.40;99.90
16955;DHT22;8594;52.052;8.354;2023-08-07T04:15:54;16.40;99.90
16955;DHT22;8594;52.052;8.354;2023-08-07T04:18:21;16.40;99.90
16955;DHT22;8594;52.052;8.354;2023-08-07T04:20:49;16.50;99.90
16955;DHT22;8594;52.052;8.354;2023-08-07T04:23:17;16.40;99.90
16955;DHT22;8594;52.052;8.354;2023-08-07T04:25:45;16.40;99.90
16955;DHT22;8594;52.052;8.354;2023-08-07T04:28:12;16.10;99.90
16955;DHT22;8594;52.052;8.354;2023-08-07T04:30:40;16.20;99.90
16955;DHT22;8594;52.052;8.354;2023-08-07T04:33:08;16.20;99.90
16955;DHT22;8594;52.052;8.354;2023-08-07T04:35:34;16.10;99.90
16955;DHT22;8594;52.052;8.354;2023-08-07T04:38:01;16.20;99.90
16955;DHT22;8594;52.052;8.354;2023-08-07T04:40:29;16.10;99.90
16955;DHT22;8594;52.052;8.354;2023-08-07T04:42:56;16.10;99.90
16955;DHT22;8594;52.052;8.354;2023-08-07T04:45:23;16.10;99.90
16955;DHT22;8594;52.052;8.354;2023-08-07T04:47:51;16.20;99.90
16955;DHT22;8594;52.052;8.354;2023-08-07T04:50:18;16.20;99.90
16955;DHT22;8594;52.052;8.354;2023-08-07T04:52:45;16.10;99.90
16955;DHT22;8594;52.052;8.354;2023-08-07T04:55:12;16.20;99.90
16955;DHT22;8594;52.052;8.354;2023-08-07T04:57:39;16.20;99.90
16955;DHT22;8594;52.052;8.354;2023-08-07T05:00:06;16.10;99.90
16955;DHT22;8594;52.052;8.354;2023-08-07T05:02:35;16.20;99.90
16955;DHT22;8594;52.052;8.354;2023-08-07T05:05:03;16.10;99.90
16955;DHT22;8594;52.052;8.354;2023-08-07T05:07:32;16.00;99.90
16955;DHT22;8594;52.052;8.354;2023-08-07T05:10:01;16.00;99.90
16955;DHT22;8594;52.052;8.354;2023-08-07T05:12:28;16.10;99.90
16955;DHT22;8594;52.052;8.354;2023-08-07T05:14:55;16.20;99.90
16955;DHT22;8594;52.052;8.354;2023-08-07T05:17:22;16.00;99.90
16955;DHT22;8594;52.052;8.354;2023-08-07T05:19:49;16.20;99.90
16955;DHT22;8594;52.052;8.354;2023-08-07T05:22:17;16.10;99.90
16955;DHT22;8594;52.052;8.354;2023-08-07T05:24:44;16.10;99.90
16955;DHT22;8594;52.052;8.354;2023-08-07T05:27:11;16.10;99.90
16955;DHT22;8594;52.052;8.354;2023-08-07T05:29:38;16.20;99.90
16955;DHT22;8594;52.052;8.354;2023-08-07T05:32:09;16.30;99.90
16955;DHT22;8594;52.052;8.354;2023-08-07T05:34:36;16.30;99.90
16955;DHT22;8594;52.052;8.354;2023-08-07T05:37:04;16.20;99.90
16955;DHT22;8594;52.052;8.354;2023-08-07T05:39:32;16.20;99.90
16955;DHT22;8594;52.052;8.354;2023-08-07T05:41:59;16.10;99.90
16955;DHT22;8594;52.052;8.354;2023-08-07T05:44:27;16.10;99.90
16955;DHT22;8594;52.052;8.354;2023-08-07T05:46:54;16.30;99.90
16955;DHT22;8594;52.052;8.354;2023-08-07T05:49:21;16.50;99.90
16955;DHT22;8594;52.052;8.354;2023-08-07T05:51:48;16.40;99.90
16955;DHT22;8594;52.052;8.354;2023-08-07T05:54:14;16.50;99.90
16955;DHT22;8594;52.052;8.354;2023-08-07T05:56:43;16.40;99.90
16955;DHT22;8594;52.052;8.354;2023-08-07T05:59:10;16.40;99.90
16955;DHT22;8594;52.052;8.354;2023-08-07T06:01:37;16.30;99.90
16955;DHT22;8594;52.052;8.354;2023-08-07T06:04:04;16.30;99.90
16955;DHT22;8594;52.052;8.354;2023-08-07T06:06:31;16.30;99.90
16955;DHT22;8594;52.052;8.354;2023-08-07T06:09:00;16.40;99.90
16955;DHT22;8594;52.052;8.354;2023-08-07T06:11:27;16.40;99.90
16955;DHT22;8594;52.052;8.354;2023-08-07T06:13:56;16.30;99.90
16955;DHT22;8594;52.052;8.354;2023-08-07T06:16:22;16.20;99.90
16955;DHT22;8594;52.052;8.354;2023-08-07T06:18:49;16.20;99.90
16955;DHT22;8594;52.052;8.354;2023-08-07T06:21:16;16.30;99.90
16955;DHT22;8594;52.052;8.354;2023-08-07T06:23:43;16.30;99.90
16955;DHT22;8594;52.052;8.354;2023-08-07T06:26:10;16.40;99.90
16955;DHT22;8594;52.052;8.354;2023-08-07T06:28:37;16.50;99.90
16955;DHT22;8594;52.052;8.354;2023-08-07T06:31:07;16.50;99.90
16955;DHT22;8594;52.052;8.354;2023-08-07T06:33:36;16.50;99.90
16955;DHT22;8594;52.052;8.354;2023-08-07T06:36:03;16.50;99.90
16955;DHT22;8594;52.052;8.354;2023-08-07T06:38:31;16.50;99.90
16955;DHT22;8594;52.052;8.354;2023-08-07T06:40:58;16.30;99.90
16955;DHT22;8594;52.052;8.354;2023-08-07T06:43:25;16.40;99.90
16955;DHT22;8594;52.052;8.354;2023-08-07T06:45:53;16.30;99.90
16955;DHT22;8594;52.052;8.354;2023-08-07T06:48:22;16.40;99.90
16955;DHT22;8594;52.052;8.354;2023-08-07T06:50:50;16.40;99.90
16955;DHT22;8594;52.052;8.354;2023-08-07T06:53:17;16.20;99.90
16955;DHT22;8594;52.052;8.354;2023-08-07T06:55:45;16.30;99.90
16955;DHT22;8594;52.052;8.354;2023-08-07T06:58:12;16.40;99.90
16955;DHT22;8594;52.052;8.354;2023-08-07T07:00:39;16.40;99.90
16955;DHT22;8594;52.052;8.354;2023-08-07T07:03:06;16.40;99.90
16955;DHT22;8594;52.052;8.354;2023-08-07T07:05:36;16.60;99.90
16955;DHT22;8594;52.052;8.354;2023-08-07T07:08:04;16.50;99.90
16955;DHT22;8594;52.052;8.354;2023-08-07T07:10:31;16.60;99.90
16955;DHT22;8594;52.052;8.354;2023-08-07T07:12:58;16.60;99.90
16955;DHT22;8594;52.052;8.354;2023-08-07T07:15:25;16.40;99.90
16955;DHT22;8594;52.052;8.354;2023-08-07T07:17:52;16.50;99.90
16955;DHT22;8594;52.052;8.354;2023-08-07T07:20:19;16.60;99.90
16955;DHT22;8594;52.052;8.354;2023-08-07T07:22:49;16.70;99.90
16955;DHT22;8594;52.052;8.354;2023-08-07T07:25:16;16.70;99.90
16955;DHT22;8594;52.052;8.354;2023-08-07T07:27:43;16.80;99.90
16955;DHT22;8594;52.052;8.354;2023-08-07T07:30:10;16.90;99.90
16955;DHT22;8594;52.052;8.354;2023-08-07T07:32:37;16.90;99.90
16955;DHT22;8594;52.052;8.354;2023-08-07T07:35:05;16.90;99.90
16955;DHT22;8594;52.052;8.354;2023-08-07T07:37:32;16.90;99.90
16955;DHT22;8594;52.052;8.354;2023-08-07T07:40:01;16.90;99.90
16955;DHT22;8594;52.052;8.354;2023-08-07T07:42:28;16.80;99.90
16955;DHT22;8594;52.052;8.354;2023-08-07T07:44:55;16.80;99.90
16955;DHT22;8594;52.052;8.354;2023-08-07T07:47:22;16.70;99.90
16955;DHT22;8594;52.052;8.354;2023-08-07T07:49:49;16.70;99.90
16955;DHT22;8594;52.052;8.354;2023-08-07T07:52:31;16.70;99.90
16955;DHT22;8594;52.052;8.354;2023-08-07T07:54:58;16.60;99.90
16955;DHT22;8594;52.052;8.354;2023-08-07T07:57:26;16.70;99.90
16955;DHT22;8594;52.052;8.354;2023-08-07T07:59:53;16.70;99.90
16955;DHT22;8594;52.052;8.354;2023-08-07T08:02:21;16.80;99.90
16955;DHT22;8594;52.052;8.354;2023-08-07T08:04:50;16.90;99.90
16955;DHT22;8594;52.052;8.354;2023-08-07T08:07:17;17.00;99.90
16955;DHT22;8594;52.052;8.354;2023-08-07T08:09:44;17.10;99.90
16955;DHT22;8594;52.052;8.354;2023-08-07T08:12:10;17.30;99.90
16955;DHT22;8594;52.052;8.354;2023-08-07T08:14:39;17.40;99.90
16955;DHT22;8594;52.052;8.354;2023-08-07T08:17:06;17.50;99.90
16955;DHT22;8594;52.052;8.354;2023-08-07T08:19:33;17.60;99.90
16955;DHT22;8594;52.052;8.354;2023-08-07T08:22:00;17.60;99.90
16955;DHT22;8594;52.052;8.354;2023-08-07T08:24:27;17.70;99.90
16955;DHT22;8594;52.052;8.354;2023-08-07T08:26:54;17.60;99.90
16955;DHT22;8594;52.052;8.354;2023-08-07T08:29:21;17.60;99.90
16955;DHT22;8594;52.052;8.354;2023-08-07T08:31:49;17.70;99.90
16955;DHT22;8594;52.052;8.354;2023-08-07T08:34:18;17.60;99.90
16955;DHT22;8594;52.052;8.354;2023-08-07T08:36:45;17.60;99.90
16955;DHT22;8594;52.052;8.354;2023-08-07T08:39:12;17.60;99.90
16955;DHT22;8594;52.052;8.354;2023-08-07T08:41:39;17.50;99.90
16955;DHT22;8594;52.052;8.354;2023-08-07T08:44:10;17.50;99.90
16955;DHT22;8594;52.052;8.354;2023-08-07T08:46:42;17.20;99.90
16955;DHT22;8594;52.052;8.354;2023-08-07T08:49:10;17.50;99.90
16955;DHT22;8594;52.052;8.354;2023-08-07T08:51:37;17.60;99.90
16955;DHT22;8594;52.052;8.354;2023-08-07T08:54:06;17.80;99.90
16955;DHT22;8594;52.052;8.354;2023-08-07T08:56:33;18.20;99.90
16955;DHT22;8594;52.052;8.354;2023-08-07T08:59:01;18.50;99.90
16955;DHT22;8594;52.052;8.354;2023-08-07T09:01:29;18.60;99.90
16955;DHT22;8594;52.052;8.354;2023-08-07T09:03:57;18.80;99.90
16955;DHT22;8594;52.052;8.354;2023-08-07T09:06:27;19.10;99.90
16955;DHT22;8594;52.052;8.354;2023-08-07T09:08:58;19.50;99.90
16955;DHT22;8594;52.052;8.354;2023-08-07T09:11:28;19.50;99.90
16955;DHT22;8594;52.052;8.354;2023-08-07T09:13:57;19.40;99.90
16955;DHT22;8594;52.052;8.354;2023-08-07T09:16:26;19.30;99.90
16955;DHT22;8594;52.052;8.354;2023-08-07T09:18:54;19.10;99.90
16955;DHT22;8594;52.052;8.354;2023-08-07T09:21:21;19.00;99.90
16955;DHT22;8594;52.052;8.354;2023-08-07T09:23:49;18.90;99.90
16955;DHT22;8594;52.052;8.354;2023-08-07T09:26:21;19.10;99.90
16955;DHT22;8594;52.052;8.354;2023-08-07T09:28:51;19.00;99.90
16955;DHT22;8594;52.052;8.354;2023-08-07T09:31:19;18.70;99.90
16955;DHT22;8594;52.052;8.354;2023-08-07T09:33:47;18.50;99.90
16955;DHT22;8594;52.052;8.354;2023-08-07T09:36:14;18.50;99.90
16955;DHT22;8594;52.052;8.354;2023-08-07T09:38:42;18.40;99.90
16955;DHT22;8594;52.052;8.354;2023-08-07T09:41:10;18.40;99.90
16955;DHT22;8594;52.052;8.354;2023-08-07T09:43:37;18.40;99.90
16955;DHT22;8594;52.052;8.354;2023-08-07T09:46:04;18.60;99.90
16955;DHT22;8594;52.052;8.354;2023-08-07T09:48:38;18.70;99.90
16955;DHT22;8594;52.052;8.354;2023-08-07T09:51:07;19.00;99.90
16955;DHT22;8594;52.052;8.354;2023-08-07T09:53:34;19.10;99.90
16955;DHT22;8594;52.052;8.354;2023-08-07T09:56:02;19.30;99.90
16955;DHT22;8594;52.052;8.354;2023-08-07T09:58:31;19.20;99.90
16955;DHT22;8594;52.052;8.354;2023-08-07T10:00:59;19.00;99.90
16955;DHT22;8594;52.052;8.354;2023-08-07T10:03:27;18.80;99.90
16955;DHT22;8594;52.052;8.354;2023-08-07T10:05:54;18.90;99.90
16955;DHT22;8594;52.052;8.354;2023-08-07T10:08:22;18.90;99.90
16955;DHT22;8594;52.052;8.354;2023-08-07T10:10:49;18.90;99.90
16955;DHT22;8594;52.052;8.354;2023-08-07T10:13:17;18.60;99.90
16955;DHT22;8594;52.052;8.354;2023-08-07T10:15:47;18.70;99.90
16955;DHT22;8594;52.052;8.354;2023-08-07T10:18:15;18.60;99.90
16955;DHT22;8594;52.052;8.354;2023-08-07T10:20:42;18.50;99.90
16955;DHT22;8594;52.052;8.354;2023-08-07T10:23:11;18.50;99.90
16955;DHT22;8594;52.052;8.354;2023-08-07T10:25:42;18.30;99.90
16955;DHT22;8594;52.052;8.354;2023-08-07T10:28:15;18.20;99.90
16955;DHT22;8594;52.052;8.354;2023-08-07T10:30:46;17.90;99.90
16955;DHT22;8594;52.052;8.354;2023-08-07T10:33:14;18.00;99.90
16955;DHT22;8594;52.052;8.354;2023-08-07T10:35:45;17.80;99.90
16955;DHT22;8594;52.052;8.354;2023-08-07T10:38:14;17.80;99.90
16955;DHT22;8594;52.052;8.354;2023-08-07T10:40:59;17.90;99.90
16955;DHT22;8594;52.052;8.354;2023-08-07T10:43:27;17.90;99.90
16955;DHT22;8594;52.052;8.354;2023-08-07T10:46:02;18.10;99.90
16955;DHT22;8594;52.052;8.354;2023-08-07T10:48:38;18.30;99.90
16955;DHT22;8594;52.052;8.354;2023-08-07T10:51:05;18.40;99.90
16955;DHT22;8594;52.052;8.354;2023-08-07T10:53:34;18.70;99.90
16955;DHT22;8594;52.052;8.354;2023-08-07T10:56:03;19.10;99.90
16955;DHT22;8594;52.052;8.354;2023-08-07T10:58:33;19.30;99.90
16955;DHT22;8594;52.052;8.354;2023-08-07T11:01:22;19.00;99.90
16955;DHT22;8594;52.052;8.354;2023-08-07T11:03:54;19.30;99.90
16955;DHT22;8594;52.052;8.354;2023-08-07T11:06:23;19.50;99.90
16955;DHT22;8594;52.052;8.354;2023-08-07T11:08:53;19.20;99.90
16955;DHT22;8594;52.052;8.354;2023-08-07T11:11:20;18.50;99.90
16955;DHT22;8594;52.052;8.354;2023-08-07T11:13:47;17.40;99.90
16955;DHT22;8594;52.052;8.354;2023-08-07T11:16:14;16.80;99.90
16955;DHT22;8594;52.052;8.354;2023-08-07T11:18:43;16.80;99.90
16955;DHT22;8594;52.052;8.354;2023-08-07T11:21:11;16.80;99.90
16955;DHT22;8594;52.052;8.354;2023-08-07T11:23:39;16.70;99.90
16955;DHT22;8594;52.052;8.354;2023-08-07T11:26:07;16.50;99.90
16955;DHT22;8594;52.052;8.354;2023-08-07T11:28:36;16.60;99.90
16955;DHT22;8594;52.052;8.354;2023-08-07T11:31:03;16.90;99.90
16955;DHT22;8594;52.052;8.354;2023-08-07T11:33:30;17.20;99.90
16955;DHT22;8594;52.052;8.354;2023-08-07T11:35:59;17.60;99.90
16955;DHT22;8594;52.052;8.354;2023-08-07T11:38:31;17.70;99.90
16955;DHT22;8594;52.052;8.354;2023-08-07T11:41:00;18.00;99.90
16955;DHT22;8594;52.052;8.354;2023-08-07T11:43:28;18.00;99.90
16955;DHT22;8594;52.052;8.354;2023-08-07T11:45:57;18.00;99.90
16955;DHT22;8594;52.052;8.354;2023-08-07T11:48:26;18.30;99.90
16955;DHT22;8594;52.052;8.354;2023-08-07T11:50:54;18.30;99.90
16955;DHT22;8594;52.052;8.354;2023-08-07T11:53:25;18.10;99.90
16955;DHT22;8594;52.052;8.354;2023-08-07T11:55:56;18.50;99.90
16955;DHT22;8594;52.052;8.354;2023-08-07T11:58:25;18.60;99.90
16955;DHT22;8594;52.052;8.354;2023-08-07T12:00:54;18.90;99.90
16955;DHT22;8594;52.052;8.354;2023-08-07T12:03:25;19.00;99.90
16955;DHT22;8594;52.052;8.354;2023-08-07T12:05:54;19.00;99.90
16955;DHT22;8594;52.052;8.354;2023-08-07T12:08:23;19.00;99.90
16955;DHT22;8594;52.052;8.354;2023-08-07T12:10:51;19.20;99.90
16955;DHT22;8594;52.052;8.354;2023-08-07T12:13:23;19.50;99.90
16955;DHT22;8594;52.052;8.354;2023-08-07T12:15:53;19.90;99.90
16955;DHT22;8594;52.052;8.354;2023-08-07T12:18:21;20.10;99.90
16955;DHT22;8594;52.052;8.354;2023-08-07T12:20:49;20.00;99.90
16955;DHT22;8594;52.052;8.354;2023-08-07T12:23:17;19.70;99.90
16955;DHT22;8594;52.052;8.354;2023-08-07T12:25:48;19.40;99.90
16955;DHT22;8594;52.052;8.354;2023-08-07T12:28:15;19.10;99.90
16955;DHT22;8594;52.052;8.354;2023-08-07T12:30:45;19.10;99.90
16955;DHT22;8594;52.052;8.354;2023-08-07T12:33:13;18.90;99.90
16955;DHT22;8594;52.052;8.354;2023-08-07T12:35:41;18.90;99.90
16955;DHT22;8594;52.052;8.354;2023-08-07T12:38:08;18.70;99.90
16955;DHT22;8594;52.052;8.354;2023-08-07T12:40:35;18.70;99.90
16955;DHT22;8594;52.052;8.354;2023-08-07T12:43:04;19.10;99.90
16955;DHT22;8594;52.052;8.354;2023-08-07T12:45:32;19.30;99.90
16955;DHT22;8594;52.052;8.354;2023-08-07T12:47:59;19.70;99.90
16955;DHT22;8594;52.052;8.354;2023-08-07T12:50:27;19.80;99.90
16955;DHT22;8594;52.052;8.354;2023-08-07T12:52:54;19.60;99.90
16955;DHT22;8594;52.052;8.354;2023-08-07T12:55:21;19.80;99.90
16955;DHT22;8594;52.052;8.354;2023-08-07T12:57:48;19.60;99.90
16955;DHT22;8594;52.052;8.354;2023-08-07T13:00:17;19.50;99.90
16955;DHT22;8594;52.052;8.354;2023-08-07T13:02:45;19.70;99.90
16955;DHT22;8594;52.052;8.354;2023-08-07T13:05:13;19.80;99.90
16955;DHT22;8594;52.052;8.354;2023-08-07T13:07:42;19.60;99.90
16955;DHT22;8594;52.052;8.354;2023-08-07T13:10:11;19.60;99.90
16955;DHT22;8594;52.052;8.354;2023-08-07T13:12:42;19.40;99.90
16955;DHT22;8594;52.052;8.354;2023-08-07T13:15:12;19.60;99.90
16955;DHT22;8594;52.052;8.354;2023-08-07T13:17:41;19.70;99.90
16955;DHT22;8594;52.052;8.354;2023-08-07T13:20:10;19.60;99.90
16955;DHT22;8594;52.052;8.354;2023-08-07T13:22:40;19.50;99.90
16955;DHT22;8594;52.052;8.354;2023-08-07T13:25:09;19.40;99.90
16955;DHT22;8594;52.052;8.354;2023-08-07T13:27:36;19.00;99.90
16955;DHT22;8594;52.052;8.354;2023-08-07T13:30:05;18.60;99.90
16955;DHT22;8594;52.052;8.354;2023-08-07T13:32:33;18.70;99.90
16955;DHT22;8594;52.052;8.354;2023-08-07T13:35:02;18.90;99.90
16955;DHT22;8594;52.052;8.354;2023-08-07T13:37:29;18.90;99.90
16955;DHT22;8594;52.052;8.354;2023-08-07T13:39:56;18.90;99.90
16955;DHT22;8594;52.052;8.354;2023-08-07T13:42:24;19.20;99.90
16955;DHT22;8594;52.052;8.354;2023-08-07T13:44:51;19.30;99.90
16955;DHT22;8594;52.052;8.354;2023-08-07T13:47:18;19.70;99.90
16955;DHT22;8594;52.052;8.354;2023-08-07T13:49:46;19.80;99.90
16955;DHT22;8594;52.052;8.354;2023-08-07T13:52:14;19.90;99.90
16955;DHT22;8594;52.052;8.354;2023-08-07T13:54:41;19.70;99.90
16955;DHT22;8594;52.052;8.354;2023-08-07T13:57:08;19.50;99.90
16955;DHT22;8594;52.052;8.354;2023-08-07T13:59:35;19.30;99.90
16955;DHT22;8594;52.052;8.354;2023-08-07T14:02:02;19.60;99.90
16955;DHT22;8594;52.052;8.354;2023-08-07T14:04:29;19.70;99.90
16955;DHT22;8594;52.052;8.354;2023-08-07T14:06:57;19.70;99.90
16955;DHT22;8594;52.052;8.354;2023-08-07T14:09:26;19.70;99.90
16955;DHT22;8594;52.052;8.354;2023-08-07T14:11:53;19.70;99.90
16955;DHT22;8594;52.052;8.354;2023-08-07T14:14:21;19.70;99.90
16955;DHT22;8594;52.052;8.354;2023-08-07T14:16:48;19.90;99.90
16955;DHT22;8594;52.052;8.354;2023-08-07T14:19:15;20.00;99.90
16955;DHT22;8594;52.052;8.354;2023-08-07T14:21:41;20.10;99.90
16955;DHT22;8594;52.052;8.354;2023-08-07T14:24:08;20.20;99.90
16955;DHT22;8594;52.052;8.354;2023-08-07T14:26:36;20.30;99.90
16955;DHT22;8594;52.052;8.354;2023-08-07T14:29:03;20.40;99.90
16955;DHT22;8594;52.052;8.354;2023-08-07T14:31:30;20.50;99.90
16955;DHT22;8594;52.052;8.354;2023-08-07T14:33:57;20.40;99.90
16955;DHT22;8594;52.052;8.354;2023-08-07T14:36:24;20.50;99.90
16955;DHT22;8594;52.052;8.354;2023-08-07T14:38:51;20.50;99.90
16955;DHT22;8594;52.052;8.354;2023-08-07T14:41:18;20.50;99.90
16955;DHT22;8594;52.052;8.354;2023-08-07T14:43:47;20.50;99.90
16955;DHT22;8594;52.052;8.354;2023-08-07T14:46:14;20.70;99.90
16955;DHT22;8594;52.052;8.354;2023-08-07T14:48:42;20.80;99.90
16955;DHT22;8594;52.052;8.354;2023-08-07T14:51:09;20.70;99.90
16955;DHT22;8594;52.052;8.354;2023-08-07T14:53:36;20.70;99.90
16955;DHT22;8594;52.052;8.354;2023-08-07T14:56:03;20.50;99.90
16955;DHT22;8594;52.052;8.354;2023-08-07T14:58:30;20.70;99.90
16955;DHT22;8594;52.052;8.354;2023-08-07T15:00:59;20.40;99.90
16955;DHT22;8594;52.052;8.354;2023-08-07T15:03:26;20.60;99.90
16955;DHT22;8594;52.052;8.354;2023-08-07T15:05:53;20.70;99.90
16955;DHT22;8594;52.052;8.354;2023-08-07T15:08:20;20.80;99.90
16955;DHT22;8594;52.052;8.354;2023-08-07T15:10:47;20.70;99.90
16955;DHT22;8594;52.052;8.354;2023-08-07T15:13:14;20.40;99.90
16955;DHT22;8594;52.052;8.354;2023-08-07T15:15:40;20.20;99.90
16955;DHT22;8594;52.052;8.354;2023-08-07T15:18:09;20.10;99.90
16955;DHT22;8594;52.052;8.354;2023-08-07T15:20:36;20.00;99.90
16955;DHT22;8594;52.052;8.354;2023-08-07T15:23:03;19.90;99.90
16955;DHT22;8594;52.052;8.354;2023-08-07T15:25:30;19.90;99.90
16955;DHT22;8594;52.052;8.354;2023-08-07T15:27:57;20.00;99.90
16955;DHT22;8594;52.052;8.354;2023-08-07T15:30:27;20.00;99.90
16955;DHT22;8594;52.052;8.354;2023-08-07T15:32:56;19.70;99.90
16955;DHT22;8594;52.052;8.354;2023-08-07T15:35:24;19.30;99.90
16955;DHT22;8594;52.052;8.354;2023-08-07T15:37:52;19.10;99.90
16955;DHT22;8594;52.052;8.354;2023-08-07T15:40:19;18.90;99.90
16955;DHT22;8594;52.052;8.354;2023-08-07T15:42:46;18.40;99.90
16955;DHT22;8594;52.052;8.354;2023-08-07T15:45:13;18.10;99.90
16955;DHT22;8594;52.052;8.354;2023-08-07T15:47:40;18.00;99.90
16955;DHT22;8594;52.052;8.354;2023-08-07T15:50:07;17.60;99.90